createdAt,value
2022-11-23T00:02:39.540Z,3.33
2022-11-23T00:05:44.196Z,2.97
2022-11-23T00:08:49.360Z,3.33
2022-11-23T00:11:53.980Z,3.13
2022-11-23T00:14:59.155Z,3.27
2022-11-23T00:18:05.356Z,3.73
2022-11-23T00:21:13.999Z,3.40
2022-11-23T00:24:18.816Z,3.27
2022-11-23T00:27:23.633Z,3.20
2022-11-23T00:30:29.249Z,3.03
2022-11-23T00:33:35.589Z,3.20
2022-11-23T00:36:40.377Z,3.43
2022-11-23T00:39:45.862Z,2.90
2022-11-23T00:42:50.473Z,2.77
2022-11-23T00:46:05.693Z,3.80
2022-11-23T00:49:13.154Z,3.50
2022-11-23T00:52:18.114Z,2.73
2022-11-23T00:55:22.740Z,2.73
2022-11-23T00:58:27.882Z,2.60
2022-11-23T01:01:34.932Z,2.20
2022-11-23T01:04:41.741Z,2.20
2022-11-23T01:07:46.447Z,2.20
2022-11-23T01:10:51.109Z,2.70
2022-11-23T01:13:56.398Z,2.73
2022-11-23T01:17:01.628Z,2.30
2022-11-23T01:20:10.579Z,2.80
2022-11-23T01:23:18.506Z,2.57
2022-11-23T01:26:23.733Z,2.40
2022-11-23T01:29:28.546Z,2.40
2022-11-23T01:32:33.277Z,2.30
2022-11-23T01:35:40.793Z,2.80
2022-11-23T01:38:46.474Z,2.80
2022-11-23T01:41:51.873Z,2.60
2022-11-23T01:45:36.891Z,2.87
2022-11-23T01:48:46.092Z,2.47
2022-11-23T01:51:54.426Z,2.60
2022-11-23T01:55:05.308Z,2.50
2022-11-23T01:58:15.793Z,2.40
2022-11-23T02:01:20.814Z,2.47
2022-11-23T02:04:29.425Z,2.83
2022-11-23T02:07:36.508Z,2.50
2022-11-23T02:10:41.206Z,2.80
2022-11-23T02:13:51.495Z,2.47
2022-11-23T02:16:58.975Z,2.83
2022-11-23T02:20:09.331Z,2.50
2022-11-23T02:23:29.590Z,2.20
2022-11-23T02:26:37.284Z,2.33
2022-11-23T02:29:42.679Z,1.80
2022-11-23T02:32:47.701Z,2.10
2022-11-23T02:35:55.055Z,2.10
2022-11-23T02:39:01.958Z,1.97
2022-11-23T02:42:08.495Z,2.00
2022-11-23T02:45:20.578Z,2.57
2022-11-23T02:48:25.356Z,1.90
2022-11-23T02:51:30.021Z,1.67
2022-11-23T02:54:35.345Z,2.23
2022-11-23T02:57:41.650Z,1.77
2022-11-23T03:00:48.600Z,2.33
2022-11-23T03:03:57.406Z,2.07
2022-11-23T03:07:04.863Z,2.10
2022-11-23T03:10:12.896Z,1.87
2022-11-23T03:13:18.949Z,2.20
2022-11-23T03:16:24.499Z,2.00
2022-11-23T03:19:29.477Z,2.03
2022-11-23T03:22:35.678Z,1.80
2022-11-23T03:25:40.397Z,1.80
2022-11-23T03:28:46.588Z,1.60
2022-11-23T03:31:54.531Z,1.97
2022-11-23T03:34:59.670Z,1.63
2022-11-23T03:38:05.442Z,1.77
2022-11-23T03:41:11.701Z,1.93
2022-11-23T03:44:28.451Z,2.20
2022-11-23T03:47:33.332Z,1.80
2022-11-23T03:50:38.044Z,2.10
2022-11-23T03:53:42.923Z,2.03
2022-11-23T03:56:47.734Z,1.80
2022-11-23T03:59:54.081Z,2.40
2022-11-23T04:02:59.858Z,1.80
2022-11-23T04:06:23.174Z,1.60
2022-11-23T04:09:27.782Z,1.83
2022-11-23T04:12:41.998Z,1.90
2022-11-23T04:15:48.120Z,1.97
2022-11-23T04:18:52.844Z,1.90
2022-11-23T04:21:58.131Z,1.90
2022-11-23T04:25:05.247Z,1.93
2022-11-23T04:28:14.054Z,1.90
2022-11-23T04:31:21.272Z,2.03
2022-11-23T04:34:39.001Z,1.90
2022-11-23T04:37:45.494Z,1.90
2022-11-23T04:40:50.964Z,1.90
2022-11-23T04:43:55.721Z,1.83
2022-11-23T04:47:03.419Z,1.67
2022-11-23T04:50:11.644Z,1.70
2022-11-23T04:53:16.788Z,1.67
2022-11-23T04:56:25.062Z,2.10
2022-11-23T04:59:30.259Z,2.00
2022-11-23T05:02:38.474Z,1.90
2022-11-23T05:05:52.956Z,2.23
2022-11-23T05:08:57.683Z,2.00
2022-11-23T05:12:25.434Z,2.10
2022-11-23T05:15:30.486Z,2.33
2022-11-23T05:18:37.606Z,2.07
2022-11-23T05:21:42.412Z,1.83
2022-11-23T05:24:47.041Z,2.00
2022-11-23T05:27:56.407Z,1.87
2022-11-23T05:31:01.088Z,1.93
2022-11-23T05:34:07.238Z,2.00
2022-11-23T05:37:20.615Z,2.47
2022-11-23T05:40:35.209Z,2.20
2022-11-23T05:43:41.550Z,2.30
2022-11-23T05:46:48.685Z,2.60
2022-11-23T05:49:55.372Z,4.27
2022-11-23T05:53:04.193Z,2.43
2022-11-23T05:56:09.678Z,2.30
2022-11-23T05:59:23.879Z,2.10
2022-11-23T06:02:40.770Z,1.93
2022-11-23T06:05:48.642Z,2.53
2022-11-23T06:08:56.658Z,2.33
2022-11-23T06:12:01.976Z,2.33
2022-11-23T06:15:08.870Z,2.60
2022-11-23T06:18:13.860Z,2.50
2022-11-23T06:21:26.932Z,2.77
2022-11-23T06:24:31.709Z,2.83
2022-11-23T06:28:08.776Z,3.00
2022-11-23T06:31:19.997Z,2.83
2022-11-23T06:34:24.726Z,2.77
2022-11-23T06:37:30.880Z,2.70
2022-11-23T06:40:35.789Z,2.97
2022-11-23T06:43:41.480Z,2.40
2022-11-23T06:46:46.194Z,2.70
2022-11-23T06:49:52.440Z,2.47
2022-11-23T06:53:05.561Z,2.70
2022-11-23T06:56:18.658Z,2.80
2022-11-23T06:59:23.754Z,3.00
2022-11-23T07:02:28.666Z,2.90
2022-11-23T07:05:35.710Z,2.77
2022-11-23T07:08:43.750Z,3.00
2022-11-23T07:12:12.250Z,2.83
2022-11-23T07:15:17.177Z,3.00
2022-11-23T07:18:23.081Z,3.17
2022-11-23T07:21:32.687Z,3.13
2022-11-23T07:24:42.646Z,3.50
2022-11-23T07:27:54.294Z,3.67
2022-11-23T07:30:59.014Z,3.70
2022-11-23T07:34:04.967Z,3.67
2022-11-23T07:37:14.286Z,3.10
2022-11-23T07:40:21.025Z,3.40
2022-11-23T07:43:25.884Z,3.80
2022-11-23T07:46:31.921Z,4.10
2022-11-23T07:49:36.590Z,3.30
2022-11-23T07:52:41.818Z,3.40
2022-11-23T07:55:48.075Z,3.63
2022-11-23T07:58:53.206Z,3.60
2022-11-23T08:01:58.688Z,2.97
2022-11-23T08:05:03.499Z,3.40
2022-11-23T08:08:08.455Z,3.70
2022-11-23T08:11:17.222Z,3.10
2022-11-23T08:14:21.926Z,3.33
2022-11-23T08:17:26.586Z,3.33
2022-11-23T08:20:33.394Z,3.20
2022-11-23T08:23:38.216Z,3.50
2022-11-23T08:26:44.255Z,3.40
2022-11-23T08:29:48.899Z,3.63
2022-11-23T08:32:53.550Z,3.60
2022-11-23T08:35:58.281Z,3.33
2022-11-23T08:39:03.115Z,3.40
2022-11-23T08:42:09.170Z,3.67
2022-11-23T08:45:13.988Z,3.80
2022-11-23T08:48:19.032Z,3.50
2022-11-23T08:51:23.877Z,3.50
2022-11-23T08:54:28.517Z,3.40
2022-11-23T08:57:34.623Z,3.87
2022-11-23T09:00:39.788Z,4.03
2022-11-23T09:03:44.877Z,4.47
2022-11-23T09:06:49.566Z,4.07
2022-11-23T09:09:54.266Z,4.47
2022-11-23T09:13:01.402Z,4.40
2022-11-23T09:16:07.893Z,4.40
2022-11-23T09:19:14.913Z,4.17
2022-11-23T09:22:19.536Z,4.30
2022-11-23T09:25:24.738Z,4.03
2022-11-23T09:28:31.530Z,3.87
2022-11-23T09:31:36.847Z,3.70
2022-11-23T09:34:41.578Z,3.93
2022-11-23T09:37:46.472Z,3.90
2022-11-23T09:40:58.249Z,3.70
2022-11-23T09:44:08.608Z,4.27
2022-11-23T09:47:32.972Z,3.33
2022-11-23T09:50:49.239Z,5.27
2022-11-23T09:53:57.837Z,5.83
2022-11-23T09:57:02.584Z,3.70
2022-11-23T10:00:19.051Z,3.53
2022-11-23T10:03:24.239Z,3.10
2022-11-23T10:06:31.605Z,3.27
2022-11-23T10:09:45.062Z,3.03
2022-11-23T10:12:58.208Z,2.90
2022-11-23T10:16:20.272Z,3.23
2022-11-23T10:19:32.689Z,3.23
2022-11-23T10:22:44.261Z,3.10
2022-11-23T10:25:51.836Z,3.73
2022-11-23T10:28:56.965Z,8.50
2022-11-23T10:32:03.366Z,4.23
2022-11-23T10:35:14.172Z,3.77
2022-11-23T10:38:21.046Z,4.77
2022-11-23T10:41:26.301Z,4.17
2022-11-23T10:44:34.174Z,3.37
2022-11-23T10:47:43.182Z,2.80
2022-11-23T10:50:48.226Z,3.10
2022-11-23T10:53:57.653Z,3.00
2022-11-23T10:57:24.197Z,3.20
2022-11-23T11:00:31.416Z,3.20
2022-11-23T11:03:37.957Z,3.07
2022-11-23T11:06:42.976Z,3.30
2022-11-23T11:09:51.916Z,2.73
2022-11-23T11:12:56.731Z,3.40
2022-11-23T11:16:04.091Z,3.30
2022-11-23T11:19:28.375Z,3.40
2022-11-23T11:22:37.022Z,3.60
2022-11-23T11:25:41.794Z,3.43
2022-11-23T11:28:50.517Z,3.70
2022-11-23T11:31:59.318Z,3.37
2022-11-23T11:35:20.383Z,4.10
2022-11-23T11:38:31.653Z,3.97
2022-11-23T11:41:36.989Z,3.37
2022-11-23T11:44:42.860Z,3.80
2022-11-23T11:47:52.154Z,3.80
2022-11-23T11:51:04.964Z,3.50
2022-11-23T11:54:19.147Z,3.67
2022-11-23T11:57:28.901Z,3.43
2022-11-23T12:00:38.679Z,3.20
2022-11-23T12:03:52.484Z,3.07
2022-11-23T12:07:06.832Z,2.60
2022-11-23T12:10:18.437Z,2.97
2022-11-23T12:13:25.101Z,2.90
2022-11-23T12:16:33.566Z,2.43
2022-11-23T12:19:43.365Z,2.53
2022-11-23T12:23:01.238Z,2.53
2022-11-23T12:26:22.693Z,2.20
2022-11-23T12:29:41.143Z,2.10
2022-11-23T12:33:00.533Z,1.87
2022-11-23T12:36:36.480Z,2.03
2022-11-23T12:40:22.472Z,1.77
2022-11-23T12:43:36.394Z,2.10
2022-11-23T12:46:48.167Z,1.67
2022-11-23T12:49:56.557Z,1.70
2022-11-23T12:53:11.365Z,1.90
2022-11-23T12:56:28.246Z,1.80
2022-11-23T12:59:43.853Z,1.90
2022-11-23T13:03:21.438Z,1.70
2022-11-23T13:07:28.797Z,1.87
2022-11-23T13:10:47.639Z,1.47
2022-11-23T13:14:09.971Z,1.60
2022-11-23T13:17:26.085Z,1.70
2022-11-23T13:20:48.147Z,1.67
2022-11-23T13:23:53.014Z,1.93
2022-11-23T13:27:46.972Z,1.40
2022-11-23T13:31:20.432Z,1.80
2022-11-23T13:34:45.931Z,1.47
2022-11-23T13:38:20.298Z,1.50
2022-11-23T13:42:01.342Z,1.60
2022-11-23T13:45:36.511Z,1.60
2022-11-23T13:48:56.844Z,1.40
2022-11-23T13:52:28.579Z,1.43
2022-11-23T13:55:36.823Z,1.60
2022-11-23T13:58:42.049Z,1.50
2022-11-23T14:02:30.902Z,1.50
2022-11-23T14:05:58.226Z,1.63
2022-11-23T14:09:08.169Z,1.50
2022-11-23T14:12:22.481Z,1.70
2022-11-23T14:15:30.086Z,1.70
2022-11-23T14:18:52.897Z,2.07
2022-11-23T14:22:07.726Z,1.60
2022-11-23T14:25:39.334Z,1.67
2022-11-23T14:28:59.354Z,1.50
2022-11-23T14:32:21.663Z,1.77
2022-11-23T14:35:33.319Z,1.60
2022-11-23T14:39:10.037Z,1.37
2022-11-23T14:42:20.740Z,1.70
2022-11-23T14:45:35.156Z,1.57
2022-11-23T14:48:39.877Z,1.60
2022-11-23T14:51:45.906Z,1.57
2022-11-23T14:54:54.276Z,1.60
2022-11-23T14:58:04.192Z,1.80
2022-11-23T15:01:11.219Z,1.40
2022-11-23T15:04:34.446Z,1.50
2022-11-23T15:07:50.225Z,1.43
2022-11-23T15:11:02.323Z,1.80
2022-11-23T15:14:20.308Z,1.67
2022-11-23T15:17:25.506Z,2.00
2022-11-23T15:20:33.658Z,1.60
2022-11-23T15:23:43.836Z,1.73
2022-11-23T15:26:50.008Z,1.70
2022-11-23T15:29:57.026Z,1.80
2022-11-23T15:33:05.578Z,1.67
2022-11-23T15:36:13.082Z,1.70
2022-11-23T15:39:20.641Z,1.70
2022-11-23T15:42:27.742Z,1.87
2022-11-23T15:45:39.288Z,1.80
2022-11-23T15:48:44.078Z,2.10
2022-11-23T15:51:49.297Z,2.00
2022-11-23T15:54:54.151Z,1.97
2022-11-23T15:58:01.605Z,1.70
2022-11-23T16:01:09.157Z,2.07
2022-11-23T16:04:27.836Z,1.90
2022-11-23T16:07:32.698Z,1.87
2022-11-23T16:10:55.572Z,2.07
2022-11-23T16:14:19.701Z,2.30
2022-11-23T16:17:26.181Z,2.00
2022-11-23T16:20:31.505Z,2.10
2022-11-23T16:23:45.800Z,2.40
2022-11-23T16:26:50.707Z,2.90
2022-11-23T16:30:02.654Z,2.13
2022-11-23T16:33:10.507Z,2.07
2022-11-23T16:36:15.428Z,2.03
2022-11-23T16:39:20.227Z,1.83
2022-11-23T16:42:25.509Z,2.00
2022-11-23T16:45:32.038Z,1.90
2022-11-23T16:48:42.792Z,1.30
2022-11-23T16:51:56.221Z,1.30
2022-11-23T16:55:01.314Z,1.60
2022-11-23T16:58:06.193Z,1.50
2022-11-23T17:01:19.735Z,1.80
2022-11-23T17:04:24.688Z,1.50
2022-11-23T17:07:29.345Z,1.33
2022-11-23T17:10:34.709Z,1.80
2022-11-23T17:13:39.713Z,1.90
2022-11-23T17:16:45.872Z,1.70
2022-11-23T17:19:51.684Z,1.30
2022-11-23T17:23:00.206Z,2.10
2022-11-23T17:26:05.764Z,3.23
2022-11-23T17:29:15.284Z,3.70
2022-11-23T17:32:21.517Z,2.70
2022-11-23T17:35:26.220Z,2.20
2022-11-23T17:38:30.970Z,1.83
2022-11-23T17:41:35.602Z,2.60
2022-11-23T17:44:40.251Z,2.50
2022-11-23T17:47:46.798Z,1.73
2022-11-23T17:50:51.718Z,1.60
2022-11-23T17:53:56.912Z,1.50
2022-11-23T17:57:01.703Z,1.40
2022-11-23T18:00:09.189Z,1.47
2022-11-23T18:03:18.191Z,1.47
2022-11-23T18:06:25.188Z,1.60
2022-11-23T18:09:29.945Z,1.50
2022-11-23T18:12:34.687Z,1.53
2022-11-23T18:15:39.640Z,1.33
2022-11-23T18:18:45.859Z,1.57
2022-11-23T18:21:50.633Z,1.70
2022-11-23T18:24:55.301Z,1.67
2022-11-23T18:28:00.304Z,1.60
2022-11-23T18:31:04.973Z,1.70
2022-11-23T18:34:11.131Z,1.77
2022-11-23T18:37:15.869Z,1.80
2022-11-23T18:40:20.855Z,1.63
2022-11-23T18:43:25.555Z,1.53
2022-11-23T18:46:30.295Z,1.93
2022-11-23T18:49:38.957Z,1.50
2022-11-23T18:52:43.932Z,1.90
2022-11-23T18:55:48.607Z,1.80
2022-11-23T18:58:53.350Z,2.07
2022-11-23T19:01:58.285Z,1.90
2022-11-23T19:05:04.742Z,1.80
2022-11-23T19:08:10.000Z,1.70
2022-11-23T19:11:17.999Z,1.83
2022-11-23T19:14:23.113Z,1.53
2022-11-23T19:17:27.952Z,1.70
2022-11-23T19:20:34.037Z,1.80
2022-11-23T19:23:38.867Z,1.70
2022-11-23T19:26:43.577Z,1.80
2022-11-23T19:29:48.424Z,1.80
2022-11-23T19:32:53.053Z,1.60
2022-11-23T19:35:59.166Z,1.67
2022-11-23T19:39:05.871Z,1.93
2022-11-23T19:42:12.782Z,1.87
2022-11-23T19:45:17.630Z,1.87
2022-11-23T19:48:22.938Z,2.33
2022-11-23T19:51:29.615Z,1.93
2022-11-23T19:54:34.702Z,2.10
2022-11-23T19:57:39.346Z,2.30
2022-11-23T20:00:45.752Z,2.30
2022-11-23T20:03:53.473Z,2.10
2022-11-23T20:06:59.842Z,2.30
2022-11-23T20:10:04.944Z,2.60
2022-11-23T20:13:11.990Z,2.23
2022-11-23T20:16:19.360Z,2.30
2022-11-23T20:19:24.041Z,2.10
2022-11-23T20:22:30.153Z,2.30
2022-11-23T20:25:37.229Z,2.40
2022-11-23T20:28:42.032Z,2.17
2022-11-23T20:31:46.887Z,2.37
2022-11-23T20:34:51.597Z,2.43
2022-11-23T20:37:57.756Z,2.50
2022-11-23T20:41:02.465Z,2.50
2022-11-23T20:44:10.321Z,2.50
2022-11-23T20:47:15.036Z,2.60
2022-11-23T20:50:24.940Z,2.50
2022-11-23T20:53:31.166Z,2.50
2022-11-23T20:56:36.183Z,2.80
2022-11-23T20:59:41.064Z,2.87
2022-11-23T21:02:45.922Z,2.77
2022-11-23T21:05:50.609Z,2.30
2022-11-23T21:08:57.281Z,2.43
2022-11-23T21:12:19.402Z,2.50
2022-11-23T21:15:24.025Z,2.33
2022-11-23T21:18:28.711Z,2.57
2022-11-23T21:21:33.642Z,2.23
2022-11-23T21:24:40.063Z,2.53
2022-11-23T21:27:44.851Z,2.90
2022-11-23T21:30:49.616Z,2.50
2022-11-23T21:33:55.523Z,2.67
2022-11-23T21:37:00.480Z,3.10
2022-11-23T21:40:08.564Z,2.47
2022-11-23T21:43:13.236Z,2.23
2022-11-23T21:46:18.237Z,2.33
2022-11-23T21:49:23.313Z,2.60
2022-11-23T21:52:28.150Z,2.20
2022-11-23T21:55:34.420Z,2.20
2022-11-23T21:58:39.990Z,2.00
2022-11-23T22:01:44.809Z,2.20
2022-11-23T22:04:49.729Z,1.93
2022-11-23T22:08:27.834Z,2.20
2022-11-23T22:11:23.133Z,2.67
2022-11-23T22:14:27.983Z,2.10
2022-11-23T22:17:32.780Z,2.07
2022-11-23T22:20:37.809Z,2.07
2022-11-23T22:23:45.029Z,2.20
2022-11-23T22:26:51.208Z,2.13
2022-11-23T22:29:56.161Z,2.20
2022-11-23T22:33:01.080Z,2.33
2022-11-23T22:36:09.189Z,2.33
2022-11-23T22:39:14.087Z,1.90
2022-11-23T22:42:20.237Z,2.00
2022-11-23T22:45:26.395Z,2.10
2022-11-23T22:48:31.769Z,2.30
2022-11-23T22:51:36.665Z,2.20
2022-11-23T22:54:41.490Z,2.20
2022-11-23T22:57:47.932Z,2.57
2022-11-23T23:00:53.050Z,2.20
2022-11-23T23:03:59.433Z,2.40
2022-11-23T23:07:04.347Z,2.50
2022-11-23T23:10:10.581Z,2.60
2022-11-23T23:13:17.494Z,2.20
2022-11-23T23:16:22.814Z,2.67
2022-11-23T23:19:27.671Z,2.80
2022-11-23T23:22:32.596Z,2.63
2022-11-23T23:25:37.911Z,2.43
2022-11-23T23:28:44.412Z,2.90
2022-11-23T23:31:49.401Z,2.80
2022-11-23T23:34:54.601Z,2.97
2022-11-23T23:37:59.477Z,2.80
2022-11-23T23:41:04.850Z,2.80
2022-11-23T23:44:11.884Z,3.10
2022-11-23T23:47:16.870Z,2.70
2022-11-23T23:50:21.700Z,3.00
2022-11-23T23:53:26.581Z,3.10
2022-11-23T23:56:31.594Z,2.90
2022-11-23T23:59:37.908Z,3.53
